createdAt,value
2022-08-09T00:01:24.318Z,49.10
2022-08-09T00:06:18.782Z,49.30
2022-08-09T00:10:58.167Z,49.30
2022-08-09T00:15:58.179Z,49.40
2022-08-09T00:20:27.740Z,49.50
2022-08-09T00:25:10.012Z,49.80
2022-08-09T00:30:16.809Z,50.30
2022-08-09T00:34:38.794Z,50.70
2022-08-09T00:40:08.937Z,50.60
2022-08-09T00:44:24.613Z,50.60
2022-08-09T00:49:00.601Z,51.00
2022-08-09T00:53:36.223Z,51.20
2022-08-09T00:58:14.640Z,51.60
2022-08-09T01:02:51.306Z,51.50
2022-08-09T01:07:37.553Z,51.60
2022-08-09T01:12:36.171Z,51.70
2022-08-09T01:17:17.867Z,51.70
2022-08-09T01:22:02.041Z,51.80
2022-08-09T01:26:54.181Z,52.00
2022-08-09T01:32:38.590Z,52.20
2022-08-09T01:36:27.438Z,52.20
2022-08-09T01:41:07.291Z,52.40
2022-08-09T01:45:45.993Z,52.40
2022-08-09T01:50:36.506Z,52.50
2022-08-09T01:55:12.267Z,52.60
2022-08-09T01:59:51.510Z,52.80
2022-08-09T02:04:29.548Z,53.20
2022-08-09T02:09:03.895Z,53.60
2022-08-09T02:13:40.608Z,53.70
2022-08-09T02:18:16.480Z,53.70
2022-08-09T02:22:54.550Z,54.00
2022-08-09T02:27:57.523Z,54.20
2022-08-09T02:32:29.684Z,54.60
2022-08-09T02:37:06.847Z,54.80
2022-08-09T02:41:45.176Z,55.00
2022-08-09T02:46:19.965Z,55.10
2022-08-09T02:50:58.164Z,55.50
2022-08-09T02:55:53.656Z,55.90
2022-08-09T03:00:31.042Z,57.00
2022-08-09T03:05:06.355Z,57.80
2022-08-09T03:09:42.776Z,57.70
2022-08-09T03:14:19.038Z,57.60
2022-08-09T03:18:57.734Z,57.90
2022-08-09T03:23:35.744Z,58.00
2022-08-09T03:28:11.280Z,58.30
2022-08-09T03:32:46.541Z,58.60
2022-08-09T03:37:54.451Z,58.70
2022-08-09T03:42:19.300Z,58.80
2022-08-09T03:47:00.402Z,59.10
2022-08-09T03:51:54.082Z,59.70
2022-08-09T03:56:31.966Z,60.10
2022-08-09T04:01:07.374Z,60.30
2022-08-09T04:05:41.674Z,60.80
2022-08-09T04:10:28.366Z,61.30
2022-08-09T04:15:11.372Z,60.80
2022-08-09T04:19:55.970Z,60.10
2022-08-09T04:24:31.863Z,59.30
2022-08-09T04:29:12.201Z,58.00
2022-08-09T04:33:56.627Z,56.60
2022-08-09T04:38:31.224Z,54.80
2022-08-09T04:43:06.261Z,53.00
2022-08-09T04:47:58.493Z,50.90
2022-08-09T04:52:35.120Z,48.40
2022-08-09T04:57:12.243Z,47.20
2022-08-09T05:01:46.316Z,46.10
2022-08-09T05:06:26.867Z,44.60
2022-08-09T05:11:03.259Z,43.50
2022-08-09T05:15:42.985Z,42.50
2022-08-09T05:20:29.840Z,41.00
2022-08-09T05:25:05.538Z,39.70
2022-08-09T05:29:41.813Z,39.10
2022-08-09T05:34:17.424Z,38.80
2022-08-09T05:38:51.707Z,37.60
2022-08-09T05:43:29.107Z,36.80
2022-08-09T05:48:07.966Z,35.80
2022-08-09T05:52:44.507Z,35.40
2022-08-09T05:57:51.373Z,36.70
2022-08-09T06:02:22.323Z,38.00
2022-08-09T06:06:58.062Z,37.60
2022-08-09T06:11:41.103Z,36.90
2022-08-09T06:16:26.303Z,36.50
2022-08-09T06:21:00.358Z,36.80
2022-08-09T06:25:35.868Z,37.40
2022-08-09T06:30:14.228Z,37.90
2022-08-09T06:34:53.164Z,38.30
2022-08-09T06:39:38.701Z,37.60
2022-08-09T06:44:22.793Z,37.30
2022-08-09T06:49:00.221Z,36.60
2022-08-09T06:53:38.462Z,34.70
2022-08-09T07:00:52.289Z,32.30
2022-08-09T07:03:08.211Z,30.60
2022-08-09T07:08:00.932Z,28.70
2022-08-09T07:12:38.014Z,27.70
2022-08-09T07:17:15.107Z,27.20
2022-08-09T07:21:57.713Z,26.60
2022-08-09T07:26:33.968Z,25.90
2022-08-09T07:31:08.031Z,25.20
2022-08-09T07:35:54.306Z,25.00
2022-08-09T07:40:46.415Z,25.20
2022-08-09T07:45:39.178Z,25.00
2022-08-09T07:50:14.551Z,24.60
2022-08-09T07:54:51.640Z,24.10
2022-08-09T07:59:45.873Z,24.10
2022-08-09T08:04:31.870Z,23.90
2022-08-09T08:09:07.754Z,23.60
2022-08-09T08:14:00.617Z,23.90
2022-08-09T08:18:36.187Z,24.30
2022-08-09T08:23:16.927Z,24.20
2022-08-09T08:27:51.768Z,23.70
2022-08-09T08:32:29.352Z,23.20
2022-08-09T08:37:05.522Z,23.00
2022-08-09T08:41:51.148Z,22.70
2022-08-09T08:46:41.557Z,22.70
2022-08-09T08:51:26.910Z,22.40
2022-08-09T08:56:28.147Z,22.10
2022-08-09T09:01:09.051Z,22.10
2022-08-09T09:05:59.636Z,21.70
2022-08-09T09:10:39.844Z,21.70
2022-08-09T09:15:28.371Z,21.70
2022-08-09T09:20:03.036Z,21.80
2022-08-09T09:24:39.856Z,21.70
2022-08-09T09:29:40.999Z,21.60
2022-08-09T09:34:29.022Z,21.40
2022-08-09T09:39:08.880Z,21.10
2022-08-09T09:44:10.802Z,21.10
2022-08-09T09:48:41.035Z,20.90
2022-08-09T09:53:25.111Z,20.70
2022-08-09T09:58:19.670Z,21.30
2022-08-09T10:02:54.188Z,20.90
2022-08-09T10:07:30.176Z,21.20
2022-08-09T10:12:14.124Z,21.10
2022-08-09T10:17:23.992Z,20.90
2022-08-09T10:22:05.525Z,20.80
2022-08-09T10:26:40.936Z,20.50
2022-08-09T10:36:12.399Z,20.90
2022-08-09T10:40:50.243Z,21.10
2022-08-09T10:45:25.284Z,21.10
2022-08-09T10:50:26.945Z,20.90
2022-08-09T10:55:21.408Z,20.70
2022-08-09T10:59:58.316Z,20.10
2022-08-09T11:04:37.388Z,20.30
2022-08-09T11:09:52.846Z,20.60
2022-08-09T11:14:32.239Z,20.70
2022-08-09T11:19:10.427Z,20.50
2022-08-09T11:24:00.771Z,20.30
2022-08-09T11:28:54.208Z,20.00
2022-08-09T11:33:46.729Z,19.70
2022-08-09T11:38:32.592Z,20.00
2022-08-09T11:43:08.159Z,20.70
2022-08-09T11:47:47.605Z,21.50
2022-08-09T11:53:03.553Z,22.50
2022-08-09T11:57:47.933Z,23.00
2022-08-09T12:02:51.128Z,22.70
2022-08-09T12:07:41.531Z,22.50
2022-08-09T12:12:28.856Z,23.00
2022-08-09T12:17:27.711Z,23.40
2022-08-09T12:22:02.846Z,24.10
2022-08-09T12:26:44.713Z,24.50
2022-08-09T12:32:01.965Z,24.60
2022-08-09T12:36:34.125Z,24.90
2022-08-09T12:41:10.470Z,24.80
2022-08-09T12:46:00.144Z,24.90
2022-08-09T12:50:37.316Z,25.00
2022-08-09T12:56:14.165Z,25.00
2022-08-09T13:00:18.696Z,25.30
2022-08-09T13:05:02.945Z,25.60
2022-08-09T13:09:38.379Z,26.00
2022-08-09T13:14:39.701Z,26.10
2022-08-09T13:19:11.476Z,26.10
2022-08-09T13:24:44.903Z,26.10
2022-08-09T13:28:42.340Z,26.20
2022-08-09T13:33:24.472Z,26.30
2022-08-09T13:38:00.169Z,26.30
2022-08-09T13:42:37.910Z,26.40
2022-08-09T13:47:27.326Z,26.40
2022-08-09T13:52:09.399Z,26.40
2022-08-09T13:56:47.038Z,26.30
2022-08-09T14:01:56.081Z,26.00
2022-08-09T14:06:26.571Z,26.10
2022-08-09T14:11:03.784Z,26.10
2022-08-09T14:16:09.711Z,26.20
2022-08-09T14:20:45.508Z,26.40
2022-08-09T14:25:22.983Z,26.70
2022-08-09T14:30:35.742Z,26.70
2022-08-09T14:34:55.518Z,26.90
2022-08-09T14:39:45.395Z,27.00
2022-08-09T14:44:32.343Z,27.20
2022-08-09T14:49:06.852Z,27.10
2022-08-09T14:53:48.661Z,26.90
2022-08-09T14:58:28.171Z,27.00
2022-08-09T15:03:03.938Z,27.50
2022-08-09T15:07:38.085Z,27.90
2022-08-09T15:12:17.837Z,28.00
2022-08-09T15:16:55.577Z,28.30
2022-08-09T15:21:56.426Z,28.40
2022-08-09T15:26:31.239Z,28.50
2022-08-09T15:31:10.306Z,28.60
2022-08-09T15:36:01.476Z,28.80
2022-08-09T15:40:36.400Z,29.10
2022-08-09T15:45:12.439Z,29.70
2022-08-09T15:50:03.842Z,29.90
2022-08-09T15:54:44.561Z,30.00
2022-08-09T15:59:20.568Z,30.00
2022-08-09T16:03:54.665Z,30.00
2022-08-09T16:08:32.411Z,30.00
2022-08-09T16:13:18.997Z,30.00
2022-08-09T16:18:04.779Z,30.10
2022-08-09T16:22:42.296Z,30.10
2022-08-09T16:27:16.874Z,30.20
2022-08-09T16:32:17.779Z,30.20
2022-08-09T16:36:46.584Z,30.10
2022-08-09T16:41:39.321Z,30.40
2022-08-09T16:46:18.428Z,30.70
2022-08-09T16:50:59.290Z,31.10
2022-08-09T16:55:58.715Z,31.30
2022-08-09T17:00:27.655Z,31.30
2022-08-09T17:05:04.784Z,31.20
2022-08-09T17:09:43.985Z,31.30
2022-08-09T17:14:27.683Z,31.60
2022-08-09T17:19:03.102Z,31.90
2022-08-09T17:24:21.121Z,32.20
2022-08-09T17:28:34.992Z,32.50
2022-08-09T17:33:22.571Z,32.70
2022-08-09T17:38:02.098Z,32.80
2022-08-09T17:42:48.780Z,32.90
2022-08-09T17:47:31.252Z,33.00
2022-08-09T17:52:23.628Z,33.10
2022-08-09T17:56:58.771Z,33.30
2022-08-09T18:02:03.718Z,33.50
2022-08-09T18:06:31.800Z,33.70
2022-08-09T18:11:07.172Z,33.90
2022-08-09T18:16:05.097Z,34.10
2022-08-09T18:21:01.200Z,34.40
2022-08-09T18:25:53.556Z,34.70
2022-08-09T18:30:39.439Z,35.10
2022-08-09T18:35:20.493Z,35.30
2022-08-09T18:40:14.569Z,35.60
2022-08-09T18:44:53.922Z,35.80
2022-08-09T18:49:28.291Z,36.20
2022-08-09T18:54:16.530Z,36.40
2022-08-09T18:58:55.553Z,36.70
2022-08-09T19:03:31.345Z,37.00
2022-08-09T19:08:28.014Z,37.40
2022-08-09T19:13:22.615Z,37.60
2022-08-09T19:17:59.896Z,37.90
2022-08-09T19:22:36.511Z,38.20
2022-08-09T19:27:11.204Z,38.40
2022-08-09T19:31:51.121Z,38.50
2022-08-09T19:36:31.057Z,38.60
2022-08-09T19:41:08.474Z,38.90
2022-08-09T19:45:42.528Z,39.20
2022-08-09T19:50:49.315Z,39.30
2022-08-09T19:55:11.558Z,39.50
2022-08-09T20:00:05.741Z,39.80
2022-08-09T20:04:47.879Z,39.90
2022-08-09T20:09:44.590Z,40.10
2022-08-09T20:14:19.928Z,40.10
2022-08-09T20:19:42.021Z,40.30
2022-08-09T20:23:50.872Z,40.50
2022-08-09T20:28:31.970Z,40.70
2022-08-09T20:33:08.695Z,41.00
2022-08-09T20:38:21.230Z,41.40
2022-08-09T20:42:53.236Z,41.40
2022-08-09T20:47:47.983Z,41.50
2022-08-09T20:52:22.769Z,41.70
2022-08-09T20:56:59.141Z,42.00
2022-08-09T21:01:50.688Z,42.20
2022-08-09T21:06:27.354Z,42.40
2022-08-09T21:11:06.381Z,42.80
2022-08-09T21:15:51.840Z,43.20
2022-08-09T21:20:26.752Z,43.40
2022-08-09T21:25:21.347Z,43.60
2022-08-09T21:29:55.393Z,43.90
2022-08-09T21:34:31.468Z,44.20
2022-08-09T21:39:06.940Z,44.60
2022-08-09T21:43:56.732Z,44.70
2022-08-09T21:48:32.253Z,44.90
2022-08-09T21:53:15.810Z,45.10
2022-08-09T21:58:02.503Z,45.40
2022-08-09T22:02:37.914Z,45.50
2022-08-09T22:07:14.366Z,45.80
2022-08-09T22:12:18.966Z,46.10
2022-08-09T22:16:58.840Z,46.50
2022-08-09T22:21:50.089Z,46.70
2022-08-09T22:26:35.323Z,46.80
2022-08-09T22:31:13.575Z,46.80
2022-08-09T22:36:02.323Z,47.00
2022-08-09T22:40:38.009Z,47.10
2022-08-09T22:48:14.399Z,47.30
2022-08-09T22:50:09.761Z,47.40
2022-08-09T22:54:47.539Z,47.70
2022-08-09T22:59:55.353Z,47.80
2022-08-09T23:04:16.383Z,48.10
2022-08-09T23:08:52.749Z,48.20
2022-08-09T23:13:26.754Z,48.60
2022-08-09T23:18:00.706Z,48.90
2022-08-09T23:22:34.719Z,49.20
2022-08-09T23:27:11.409Z,49.50
2022-08-09T23:31:45.405Z,49.60
2022-08-09T23:36:19.403Z,49.90
2022-08-09T23:40:54.186Z,50.00
2022-08-09T23:45:36.634Z,50.30
2022-08-09T23:50:12.481Z,50.50
2022-08-09T23:54:46.596Z,50.90
2022-08-09T23:59:21.097Z,51.10
